sensor_id;sensor_type;location;lat;lon;timestamp;P1;durP1;ratioP1;P2;durP2;ratioP2
15022;SDS011;19850;49.576;10.880;2022-08-19T00:02:05;16.93;;;15.13;;
15022;SDS011;19850;49.576;10.880;2022-08-19T00:06:08;17.43;;;15.73;;
15022;SDS011;19850;49.576;10.880;2022-08-19T00:10:13;18.20;;;16.50;;
15022;SDS011;19850;49.576;10.880;2022-08-19T00:14:16;19.43;;;17.47;;
15022;SDS011;19850;49.576;10.880;2022-08-19T00:18:21;17.93;;;16.13;;
15022;SDS011;19850;49.576;10.880;2022-08-19T00:22:24;19.00;;;17.07;;
15022;SDS011;19850;49.576;10.880;2022-08-19T00:26:30;18.20;;;16.50;;
15022;SDS011;19850;49.576;10.880;2022-08-19T00:30:34;20.53;;;18.43;;
15022;SDS011;19850;49.576;10.880;2022-08-19T00:34:38;19.80;;;17.57;;
15022;SDS011;19850;49.576;10.880;2022-08-19T00:38:40;20.20;;;18.20;;
15022;SDS011;19850;49.576;10.880;2022-08-19T00:42:45;21.20;;;18.90;;
15022;SDS011;19850;49.576;10.880;2022-08-19T00:46:50;20.60;;;18.57;;
15022;SDS011;19850;49.576;10.880;2022-08-19T00:50:58;22.87;;;20.47;;
15022;SDS011;19850;49.576;10.880;2022-08-19T00:55:02;23.17;;;20.70;;
15022;SDS011;19850;49.576;10.880;2022-08-19T00:59:09;23.40;;;21.10;;
15022;SDS011;19850;49.576;10.880;2022-08-19T01:03:13;23.83;;;21.43;;
15022;SDS011;19850;49.576;10.880;2022-08-19T01:07:19;24.40;;;22.00;;
15022;SDS011;19850;49.576;10.880;2022-08-19T01:11:24;25.00;;;22.40;;
15022;SDS011;19850;49.576;10.880;2022-08-19T01:15:29;25.50;;;22.90;;
15022;SDS011;19850;49.576;10.880;2022-08-19T01:19:35;25.53;;;22.83;;
15022;SDS011;19850;49.576;10.880;2022-08-19T01:23:46;25.83;;;23.33;;
15022;SDS011;19850;49.576;10.880;2022-08-19T01:27:49;26.53;;;23.97;;
15022;SDS011;19850;49.576;10.880;2022-08-19T01:31:53;25.97;;;23.37;;
15022;SDS011;19850;49.576;10.880;2022-08-19T01:36:02;27.47;;;24.57;;
15022;SDS011;19850;49.576;10.880;2022-08-19T01:40:10;27.47;;;24.77;;
15022;SDS011;19850;49.576;10.880;2022-08-19T01:44:13;27.40;;;24.60;;
15022;SDS011;19850;49.576;10.880;2022-08-19T01:48:19;28.17;;;25.27;;
15022;SDS011;19850;49.576;10.880;2022-08-19T01:52:22;28.13;;;25.37;;
15022;SDS011;19850;49.576;10.880;2022-08-19T01:56:26;29.70;;;26.80;;
15022;SDS011;19850;49.576;10.880;2022-08-19T02:00:29;29.43;;;26.63;;
15022;SDS011;19850;49.576;10.880;2022-08-19T02:04:32;31.07;;;27.97;;
15022;SDS011;19850;49.576;10.880;2022-08-19T02:08:36;29.03;;;26.10;;
15022;SDS011;19850;49.576;10.880;2022-08-19T02:12:41;29.77;;;26.63;;
15022;SDS011;19850;49.576;10.880;2022-08-19T02:16:44;28.83;;;25.73;;
15022;SDS011;19850;49.576;10.880;2022-08-19T02:20:47;28.33;;;25.47;;
15022;SDS011;19850;49.576;10.880;2022-08-19T02:24:50;29.60;;;26.07;;
15022;SDS011;19850;49.576;10.880;2022-08-19T02:28:54;29.20;;;26.20;;
15022;SDS011;19850;49.576;10.880;2022-08-19T02:32:58;30.33;;;27.17;;
15022;SDS011;19850;49.576;10.880;2022-08-19T02:37:00;30.00;;;26.90;;
15022;SDS011;19850;49.576;10.880;2022-08-19T02:41:04;31.13;;;28.03;;
15022;SDS011;19850;49.576;10.880;2022-08-19T02:45:12;28.60;;;25.77;;
15022;SDS011;19850;49.576;10.880;2022-08-19T02:49:15;31.47;;;27.83;;
15022;SDS011;19850;49.576;10.880;2022-08-19T02:53:19;29.17;;;26.10;;
15022;SDS011;19850;49.576;10.880;2022-08-19T02:57:23;31.07;;;27.80;;
15022;SDS011;19850;49.576;10.880;2022-08-19T03:01:28;30.60;;;27.40;;
15022;SDS011;19850;49.576;10.880;2022-08-19T03:05:32;29.60;;;26.63;;
15022;SDS011;19850;49.576;10.880;2022-08-19T03:09:55;30.57;;;27.47;;
15022;SDS011;19850;49.576;10.880;2022-08-19T03:13:58;29.83;;;26.80;;
15022;SDS011;19850;49.576;10.880;2022-08-19T03:18:03;30.70;;;27.23;;
15022;SDS011;19850;49.576;10.880;2022-08-19T03:22:08;30.27;;;27.37;;
15022;SDS011;19850;49.576;10.880;2022-08-19T03:26:11;30.97;;;27.87;;
15022;SDS011;19850;49.576;10.880;2022-08-19T03:30:17;30.47;;;27.17;;
15022;SDS011;19850;49.576;10.880;2022-08-19T03:34:26;31.17;;;28.00;;
15022;SDS011;19850;49.576;10.880;2022-08-19T03:38:30;30.43;;;27.30;;
15022;SDS011;19850;49.576;10.880;2022-08-19T03:42:34;30.47;;;27.27;;
15022;SDS011;19850;49.576;10.880;2022-08-19T03:46:50;31.63;;;28.20;;
15022;SDS011;19850;49.576;10.880;2022-08-19T03:50:56;31.37;;;28.07;;
15022;SDS011;19850;49.576;10.880;2022-08-19T03:55:00;32.70;;;29.27;;
15022;SDS011;19850;49.576;10.880;2022-08-19T03:59:03;31.03;;;27.70;;
15022;SDS011;19850;49.576;10.880;2022-08-19T04:03:06;31.50;;;28.33;;
15022;SDS011;19850;49.576;10.880;2022-08-19T04:07:11;32.07;;;28.60;;
15022;SDS011;19850;49.576;10.880;2022-08-19T04:11:17;32.13;;;28.33;;
15022;SDS011;19850;49.576;10.880;2022-08-19T04:15:44;31.07;;;27.67;;
15022;SDS011;19850;49.576;10.880;2022-08-19T04:19:47;30.53;;;27.23;;
15022;SDS011;19850;49.576;10.880;2022-08-19T04:23:51;31.63;;;28.23;;
15022;SDS011;19850;49.576;10.880;2022-08-19T04:27:56;30.33;;;27.07;;
15022;SDS011;19850;49.576;10.880;2022-08-19T04:31:58;33.07;;;28.83;;
15022;SDS011;19850;49.576;10.880;2022-08-19T04:36:15;30.70;;;27.40;;
15022;SDS011;19850;49.576;10.880;2022-08-19T04:40:22;32.50;;;29.00;;
15022;SDS011;19850;49.576;10.880;2022-08-19T04:44:42;32.53;;;28.90;;
15022;SDS011;19850;49.576;10.880;2022-08-19T04:48:46;31.87;;;28.37;;
15022;SDS011;19850;49.576;10.880;2022-08-19T04:52:50;33.97;;;27.43;;
15022;SDS011;19850;49.576;10.880;2022-08-19T04:56:55;31.73;;;27.87;;
15022;SDS011;19850;49.576;10.880;2022-08-19T05:00:57;31.73;;;28.27;;
15022;SDS011;19850;49.576;10.880;2022-08-19T05:05:02;31.10;;;27.30;;
15022;SDS011;19850;49.576;10.880;2022-08-19T05:09:05;29.73;;;26.73;;
15022;SDS011;19850;49.576;10.880;2022-08-19T05:13:09;28.63;;;25.63;;
15022;SDS011;19850;49.576;10.880;2022-08-19T05:17:12;29.17;;;25.13;;
15022;SDS011;19850;49.576;10.880;2022-08-19T05:21:35;26.43;;;23.27;;
15022;SDS011;19850;49.576;10.880;2022-08-19T05:25:56;25.13;;;22.47;;
15022;SDS011;19850;49.576;10.880;2022-08-19T05:30:00;26.03;;;23.33;;
15022;SDS011;19850;49.576;10.880;2022-08-19T05:34:03;26.30;;;23.60;;
15022;SDS011;19850;49.576;10.880;2022-08-19T05:38:18;27.60;;;24.73;;
15022;SDS011;19850;49.576;10.880;2022-08-19T05:42:22;28.10;;;25.20;;
15022;SDS011;19850;49.576;10.880;2022-08-19T05:46:26;27.90;;;24.83;;
15022;SDS011;19850;49.576;10.880;2022-08-19T05:50:29;26.93;;;24.07;;
15022;SDS011;19850;49.576;10.880;2022-08-19T05:54:31;26.17;;;23.47;;
15022;SDS011;19850;49.576;10.880;2022-08-19T05:58:35;26.87;;;24.17;;
15022;SDS011;19850;49.576;10.880;2022-08-19T06:02:40;30.77;;;26.73;;
15022;SDS011;19850;49.576;10.880;2022-08-19T06:06:43;30.83;;;27.67;;
15022;SDS011;19850;49.576;10.880;2022-08-19T06:10:46;33.93;;;28.03;;
15022;SDS011;19850;49.576;10.880;2022-08-19T06:14:49;30.27;;;26.53;;
15022;SDS011;19850;49.576;10.880;2022-08-19T06:19:04;33.30;;;28.43;;
15022;SDS011;19850;49.576;10.880;2022-08-19T06:23:08;32.00;;;28.53;;
15022;SDS011;19850;49.576;10.880;2022-08-19T06:27:17;33.57;;;27.60;;
15022;SDS011;19850;49.576;10.880;2022-08-19T06:31:21;29.90;;;26.80;;
15022;SDS011;19850;49.576;10.880;2022-08-19T06:35:26;33.60;;;27.63;;
15022;SDS011;19850;49.576;10.880;2022-08-19T06:39:31;30.07;;;26.80;;
15022;SDS011;19850;49.576;10.880;2022-08-19T06:43:35;31.77;;;27.10;;
15022;SDS011;19850;49.576;10.880;2022-08-19T06:47:42;33.63;;;27.53;;
15022;SDS011;19850;49.576;10.880;2022-08-19T06:51:50;32.53;;;26.40;;
15022;SDS011;19850;49.576;10.880;2022-08-19T06:55:54;29.93;;;26.73;;
15022;SDS011;19850;49.576;10.880;2022-08-19T07:00:01;30.27;;;26.60;;
15022;SDS011;19850;49.576;10.880;2022-08-19T07:04:05;30.40;;;27.13;;
15022;SDS011;19850;49.576;10.880;2022-08-19T07:08:13;32.40;;;28.27;;
15022;SDS011;19850;49.576;10.880;2022-08-19T07:12:18;29.47;;;26.37;;
15022;SDS011;19850;49.576;10.880;2022-08-19T07:16:22;29.77;;;26.53;;
15022;SDS011;19850;49.576;10.880;2022-08-19T07:20:29;31.27;;;27.60;;
15022;SDS011;19850;49.576;10.880;2022-08-19T07:24:36;30.70;;;27.33;;
15022;SDS011;19850;49.576;10.880;2022-08-19T07:28:51;30.90;;;27.60;;
15022;SDS011;19850;49.576;10.880;2022-08-19T07:32:55;30.80;;;26.67;;
15022;SDS011;19850;49.576;10.880;2022-08-19T07:36:58;29.93;;;26.83;;
15022;SDS011;19850;49.576;10.880;2022-08-19T07:41:02;30.07;;;26.37;;
15022;SDS011;19850;49.576;10.880;2022-08-19T07:45:05;30.03;;;26.90;;
15022;SDS011;19850;49.576;10.880;2022-08-19T07:49:09;31.00;;;27.50;;
15022;SDS011;19850;49.576;10.880;2022-08-19T07:53:20;28.27;;;24.30;;
15022;SDS011;19850;49.576;10.880;2022-08-19T07:57:24;28.43;;;25.43;;
15022;SDS011;19850;49.576;10.880;2022-08-19T08:01:27;29.20;;;26.10;;
15022;SDS011;19850;49.576;10.880;2022-08-19T08:05:31;30.27;;;25.37;;
15022;SDS011;19850;49.576;10.880;2022-08-19T08:09:52;28.53;;;25.43;;
15022;SDS011;19850;49.576;10.880;2022-08-19T08:13:57;30.00;;;25.90;;
15022;SDS011;19850;49.576;10.880;2022-08-19T08:18:01;29.90;;;25.67;;
15022;SDS011;19850;49.576;10.880;2022-08-19T08:22:05;27.80;;;24.83;;
15022;SDS011;19850;49.576;10.880;2022-08-19T08:26:08;29.20;;;26.10;;
15022;SDS011;19850;49.576;10.880;2022-08-19T08:30:16;29.43;;;24.40;;
15022;SDS011;19850;49.576;10.880;2022-08-19T08:34:21;26.93;;;24.03;;
15022;SDS011;19850;49.576;10.880;2022-08-19T08:38:24;27.20;;;24.30;;
15022;SDS011;19850;49.576;10.880;2022-08-19T08:42:29;30.27;;;25.90;;
15022;SDS011;19850;49.576;10.880;2022-08-19T08:46:38;27.57;;;24.20;;
15022;SDS011;19850;49.576;10.880;2022-08-19T08:50:47;26.00;;;23.40;;
15022;SDS011;19850;49.576;10.880;2022-08-19T08:54:52;26.17;;;22.53;;
15022;SDS011;19850;49.576;10.880;2022-08-19T08:58:59;27.93;;;24.47;;
15022;SDS011;19850;49.576;10.880;2022-08-19T09:03:09;23.60;;;21.17;;
15022;SDS011;19850;49.576;10.880;2022-08-19T09:07:21;26.30;;;22.67;;
15022;SDS011;19850;49.576;10.880;2022-08-19T09:11:40;23.83;;;20.87;;
15022;SDS011;19850;49.576;10.880;2022-08-19T09:15:52;24.27;;;19.83;;
15022;SDS011;19850;49.576;10.880;2022-08-19T09:20:00;24.23;;;20.20;;
15022;SDS011;19850;49.576;10.880;2022-08-19T09:24:09;21.00;;;18.87;;
15022;SDS011;19850;49.576;10.880;2022-08-19T09:28:13;20.97;;;18.73;;
15022;SDS011;19850;49.576;10.880;2022-08-19T09:32:27;20.23;;;17.77;;
15022;SDS011;19850;49.576;10.880;2022-08-19T09:36:31;21.50;;;19.37;;
15022;SDS011;19850;49.576;10.880;2022-08-19T09:40:37;20.37;;;18.27;;
15022;SDS011;19850;49.576;10.880;2022-08-19T09:44:42;18.83;;;16.83;;
15022;SDS011;19850;49.576;10.880;2022-08-19T09:48:45;19.27;;;17.23;;
15022;SDS011;19850;49.576;10.880;2022-08-19T09:52:51;19.97;;;17.97;;
15022;SDS011;19850;49.576;10.880;2022-08-19T09:56:59;22.10;;;18.00;;
15022;SDS011;19850;49.576;10.880;2022-08-19T10:01:08;17.60;;;15.67;;
15022;SDS011;19850;49.576;10.880;2022-08-19T10:05:11;18.70;;;16.60;;
15022;SDS011;19850;49.576;10.880;2022-08-19T10:09:32;19.90;;;17.73;;
15022;SDS011;19850;49.576;10.880;2022-08-19T10:13:36;18.03;;;16.00;;
15022;SDS011;19850;49.576;10.880;2022-08-19T10:17:39;18.07;;;15.87;;
15022;SDS011;19850;49.576;10.880;2022-08-19T10:21:55;18.97;;;16.13;;
15022;SDS011;19850;49.576;10.880;2022-08-19T10:26:02;18.63;;;16.73;;
15022;SDS011;19850;49.576;10.880;2022-08-19T10:30:07;17.63;;;15.80;;
15022;SDS011;19850;49.576;10.880;2022-08-19T10:34:13;16.13;;;14.43;;
15022;SDS011;19850;49.576;10.880;2022-08-19T10:38:27;15.83;;;14.13;;
15022;SDS011;19850;49.576;10.880;2022-08-19T10:42:34;16.43;;;14.73;;
15022;SDS011;19850;49.576;10.880;2022-08-19T10:46:38;16.30;;;14.70;;
15022;SDS011;19850;49.576;10.880;2022-08-19T10:50:48;15.87;;;14.23;;
15022;SDS011;19850;49.576;10.880;2022-08-19T10:55:08;17.47;;;14.50;;
15022;SDS011;19850;49.576;10.880;2022-08-19T10:59:31;14.93;;;12.87;;
15022;SDS011;19850;49.576;10.880;2022-08-19T11:03:36;15.17;;;13.57;;
15022;SDS011;19850;49.576;10.880;2022-08-19T11:07:39;13.93;;;12.53;;
15022;SDS011;19850;49.576;10.880;2022-08-19T11:11:42;14.73;;;13.23;;
15022;SDS011;19850;49.576;10.880;2022-08-19T11:15:46;12.63;;;11.37;;
15022;SDS011;19850;49.576;10.880;2022-08-19T11:19:49;14.83;;;12.63;;
15022;SDS011;19850;49.576;10.880;2022-08-19T11:23:53;12.77;;;11.40;;
15022;SDS011;19850;49.576;10.880;2022-08-19T11:27:57;13.23;;;10.53;;
15022;SDS011;19850;49.576;10.880;2022-08-19T11:32:02;11.70;;;10.60;;
15022;SDS011;19850;49.576;10.880;2022-08-19T11:36:07;11.80;;;10.60;;
15022;SDS011;19850;49.576;10.880;2022-08-19T11:40:15;12.17;;;10.97;;
15022;SDS011;19850;49.576;10.880;2022-08-19T11:44:18;12.63;;;11.43;;
15022;SDS011;19850;49.576;10.880;2022-08-19T11:48:22;13.77;;;12.37;;
15022;SDS011;19850;49.576;10.880;2022-08-19T11:52:26;13.30;;;11.77;;
15022;SDS011;19850;49.576;10.880;2022-08-19T11:56:30;14.43;;;12.93;;
15022;SDS011;19850;49.576;10.880;2022-08-19T12:00:33;15.10;;;13.47;;
15022;SDS011;19850;49.576;10.880;2022-08-19T12:04:39;14.67;;;13.27;;
15022;SDS011;19850;49.576;10.880;2022-08-19T12:08:42;14.67;;;13.27;;
15022;SDS011;19850;49.576;10.880;2022-08-19T12:12:46;16.53;;;14.83;;
15022;SDS011;19850;49.576;10.880;2022-08-19T12:16:59;19.37;;;17.07;;
15022;SDS011;19850;49.576;10.880;2022-08-19T12:21:04;18.93;;;16.93;;
15022;SDS011;19850;49.576;10.880;2022-08-19T12:25:07;18.40;;;16.47;;
15022;SDS011;19850;49.576;10.880;2022-08-19T12:29:11;19.23;;;17.27;;
15022;SDS011;19850;49.576;10.880;2022-08-19T12:33:19;19.87;;;17.87;;
15022;SDS011;19850;49.576;10.880;2022-08-19T12:37:26;24.70;;;19.23;;
15022;SDS011;19850;49.576;10.880;2022-08-19T12:41:31;24.77;;;19.73;;
15022;SDS011;19850;49.576;10.880;2022-08-19T12:45:34;21.50;;;19.30;;
15022;SDS011;19850;49.576;10.880;2022-08-19T12:49:37;22.67;;;20.13;;
15022;SDS011;19850;49.576;10.880;2022-08-19T12:53:57;23.60;;;21.00;;
15022;SDS011;19850;49.576;10.880;2022-08-19T12:58:00;24.70;;;21.90;;
15022;SDS011;19850;49.576;10.880;2022-08-19T13:02:03;22.23;;;19.83;;
15022;SDS011;19850;49.576;10.880;2022-08-19T13:06:07;21.00;;;18.87;;
15022;SDS011;19850;49.576;10.880;2022-08-19T13:10:13;24.17;;;19.10;;
15022;SDS011;19850;49.576;10.880;2022-08-19T13:14:17;23.70;;;19.10;;
15022;SDS011;19850;49.576;10.880;2022-08-19T13:18:20;21.33;;;19.03;;
15022;SDS011;19850;49.576;10.880;2022-08-19T13:22:23;27.27;;;18.93;;
15022;SDS011;19850;49.576;10.880;2022-08-19T13:26:27;21.93;;;18.90;;
15022;SDS011;19850;49.576;10.880;2022-08-19T13:30:30;24.90;;;19.73;;
15022;SDS011;19850;49.576;10.880;2022-08-19T13:34:50;21.43;;;19.17;;
15022;SDS011;19850;49.576;10.880;2022-08-19T13:38:53;22.33;;;19.93;;
15022;SDS011;19850;49.576;10.880;2022-08-19T13:42:59;20.53;;;18.33;;
15022;SDS011;19850;49.576;10.880;2022-08-19T13:47:17;23.10;;;20.67;;
15022;SDS011;19850;49.576;10.880;2022-08-19T13:51:21;18.53;;;13.27;;
15022;SDS011;19850;49.576;10.880;2022-08-19T13:55:25;12.03;;;9.43;;
15022;SDS011;19850;49.576;10.880;2022-08-19T13:59:29;12.57;;;10.80;;
15022;SDS011;19850;49.576;10.880;2022-08-19T14:03:33;11.33;;;10.13;;
15022;SDS011;19850;49.576;10.880;2022-08-19T14:07:37;13.23;;;11.93;;
15022;SDS011;19850;49.576;10.880;2022-08-19T14:11:40;13.90;;;11.73;;
15022;SDS011;19850;49.576;10.880;2022-08-19T14:15:44;12.53;;;10.53;;
15022;SDS011;19850;49.576;10.880;2022-08-19T14:19:48;11.00;;;9.17;;
15022;SDS011;19850;49.576;10.880;2022-08-19T14:23:51;9.30;;;8.20;;
15022;SDS011;19850;49.576;10.880;2022-08-19T14:27:55;8.70;;;7.80;;
15022;SDS011;19850;49.576;10.880;2022-08-19T14:31:59;8.47;;;7.27;;
15022;SDS011;19850;49.576;10.880;2022-08-19T14:36:02;12.40;;;7.03;;
15022;SDS011;19850;49.576;10.880;2022-08-19T14:40:07;8.50;;;6.53;;
15022;SDS011;19850;49.576;10.880;2022-08-19T14:44:13;8.37;;;6.47;;
15022;SDS011;19850;49.576;10.880;2022-08-19T14:48:19;8.90;;;6.80;;
15022;SDS011;19850;49.576;10.880;2022-08-19T14:52:29;7.20;;;6.17;;
15022;SDS011;19850;49.576;10.880;2022-08-19T14:56:32;6.90;;;6.20;;
15022;SDS011;19850;49.576;10.880;2022-08-19T15:00:34;7.07;;;6.13;;
15022;SDS011;19850;49.576;10.880;2022-08-19T15:04:39;6.70;;;5.70;;
15022;SDS011;19850;49.576;10.880;2022-08-19T15:08:42;7.57;;;5.97;;
15022;SDS011;19850;49.576;10.880;2022-08-19T15:12:46;8.33;;;6.00;;
15022;SDS011;19850;49.576;10.880;2022-08-19T15:16:52;8.37;;;6.10;;
15022;SDS011;19850;49.576;10.880;2022-08-19T15:20:56;9.03;;;5.80;;
15022;SDS011;19850;49.576;10.880;2022-08-19T15:24:59;8.37;;;5.80;;
15022;SDS011;19850;49.576;10.880;2022-08-19T15:29:03;10.03;;;5.60;;
15022;SDS011;19850;49.576;10.880;2022-08-19T15:33:06;9.17;;;6.50;;
15022;SDS011;19850;49.576;10.880;2022-08-19T15:37:10;10.07;;;6.00;;
15022;SDS011;19850;49.576;10.880;2022-08-19T15:41:17;8.57;;;6.07;;
15022;SDS011;19850;49.576;10.880;2022-08-19T15:45:27;9.10;;;6.50;;
15022;SDS011;19850;49.576;10.880;2022-08-19T15:49:32;8.50;;;6.60;;
15022;SDS011;19850;49.576;10.880;2022-08-19T15:53:37;8.60;;;7.03;;
15022;SDS011;19850;49.576;10.880;2022-08-19T15:57:40;10.33;;;7.27;;
15022;SDS011;19850;49.576;10.880;2022-08-19T16:02:01;9.47;;;7.47;;
15022;SDS011;19850;49.576;10.880;2022-08-19T16:06:32;9.53;;;7.83;;
15022;SDS011;19850;49.576;10.880;2022-08-19T16:10:37;9.10;;;8.20;;
15022;SDS011;19850;49.576;10.880;2022-08-19T16:14:40;10.37;;;7.77;;
15022;SDS011;19850;49.576;10.880;2022-08-19T16:18:43;10.77;;;7.40;;
15022;SDS011;19850;49.576;10.880;2022-08-19T16:22:47;9.90;;;7.37;;
15022;SDS011;19850;49.576;10.880;2022-08-19T16:26:52;9.40;;;7.87;;
15022;SDS011;19850;49.576;10.880;2022-08-19T16:30:56;8.63;;;7.10;;
15022;SDS011;19850;49.576;10.880;2022-08-19T16:34:59;7.13;;;6.10;;
15022;SDS011;19850;49.576;10.880;2022-08-19T16:39:07;8.60;;;6.43;;
15022;SDS011;19850;49.576;10.880;2022-08-19T16:43:11;8.07;;;6.30;;
15022;SDS011;19850;49.576;10.880;2022-08-19T16:47:14;9.73;;;7.03;;
15022;SDS011;19850;49.576;10.880;2022-08-19T16:51:18;9.43;;;6.87;;
15022;SDS011;19850;49.576;10.880;2022-08-19T16:55:22;8.07;;;7.07;;
15022;SDS011;19850;49.576;10.880;2022-08-19T16:59:29;9.53;;;7.03;;
15022;SDS011;19850;49.576;10.880;2022-08-19T17:03:33;10.70;;;7.77;;
15022;SDS011;19850;49.576;10.880;2022-08-19T17:07:37;8.00;;;7.10;;
15022;SDS011;19850;49.576;10.880;2022-08-19T17:11:40;9.30;;;7.23;;
15022;SDS011;19850;49.576;10.880;2022-08-19T17:15:44;8.67;;;6.60;;
15022;SDS011;19850;49.576;10.880;2022-08-19T17:19:47;9.13;;;6.60;;
15022;SDS011;19850;49.576;10.880;2022-08-19T17:23:50;7.40;;;6.70;;
15022;SDS011;19850;49.576;10.880;2022-08-19T17:27:53;7.07;;;6.37;;
15022;SDS011;19850;49.576;10.880;2022-08-19T17:31:57;9.00;;;7.20;;
15022;SDS011;19850;49.576;10.880;2022-08-19T17:36:00;8.53;;;7.03;;
15022;SDS011;19850;49.576;10.880;2022-08-19T17:40:05;9.10;;;7.10;;
15022;SDS011;19850;49.576;10.880;2022-08-19T17:44:09;8.47;;;7.57;;
15022;SDS011;19850;49.576;10.880;2022-08-19T17:48:14;8.80;;;7.83;;
15022;SDS011;19850;49.576;10.880;2022-08-19T17:52:17;9.10;;;8.03;;
15022;SDS011;19850;49.576;10.880;2022-08-19T17:56:20;9.20;;;7.43;;
15022;SDS011;19850;49.576;10.880;2022-08-19T18:00:23;9.83;;;7.77;;
15022;SDS011;19850;49.576;10.880;2022-08-19T18:04:30;10.77;;;7.50;;
15022;SDS011;19850;49.576;10.880;2022-08-19T18:08:32;9.83;;;6.83;;
15022;SDS011;19850;49.576;10.880;2022-08-19T18:12:36;10.47;;;7.50;;
15022;SDS011;19850;49.576;10.880;2022-08-19T18:16:39;10.13;;;7.17;;
15022;SDS011;19850;49.576;10.880;2022-08-19T18:20:43;8.07;;;7.13;;
15022;SDS011;19850;49.576;10.880;2022-08-19T18:24:46;9.20;;;7.30;;
15022;SDS011;19850;49.576;10.880;2022-08-19T18:28:49;9.47;;;7.17;;
15022;SDS011;19850;49.576;10.880;2022-08-19T18:32:52;7.50;;;6.70;;
15022;SDS011;19850;49.576;10.880;2022-08-19T18:36:57;10.17;;;7.87;;
15022;SDS011;19850;49.576;10.880;2022-08-19T18:41:00;10.67;;;6.73;;
15022;SDS011;19850;49.576;10.880;2022-08-19T18:45:20;8.03;;;6.90;;
15022;SDS011;19850;49.576;10.880;2022-08-19T18:49:43;11.67;;;6.97;;
15022;SDS011;19850;49.576;10.880;2022-08-19T18:53:48;9.07;;;7.57;;
15022;SDS011;19850;49.576;10.880;2022-08-19T18:57:51;9.20;;;7.10;;
15022;SDS011;19850;49.576;10.880;2022-08-19T19:01:54;11.60;;;7.57;;
15022;SDS011;19850;49.576;10.880;2022-08-19T19:05:58;7.20;;;6.60;;
15022;SDS011;19850;49.576;10.880;2022-08-19T19:10:03;8.63;;;6.43;;
15022;SDS011;19850;49.576;10.880;2022-08-19T19:14:07;7.87;;;5.93;;
15022;SDS011;19850;49.576;10.880;2022-08-19T19:18:28;6.43;;;5.87;;
15022;SDS011;19850;49.576;10.880;2022-08-19T19:22:31;7.13;;;5.83;;
15022;SDS011;19850;49.576;10.880;2022-08-19T19:26:35;7.37;;;5.70;;
15022;SDS011;19850;49.576;10.880;2022-08-19T19:30:38;7.47;;;6.00;;
15022;SDS011;19850;49.576;10.880;2022-08-19T19:34:41;6.73;;;6.10;;
15022;SDS011;19850;49.576;10.880;2022-08-19T19:38:44;7.53;;;5.27;;
15022;SDS011;19850;49.576;10.880;2022-08-19T19:42:50;8.87;;;5.83;;
15022;SDS011;19850;49.576;10.880;2022-08-19T19:46:54;7.67;;;6.53;;
15022;SDS011;19850;49.576;10.880;2022-08-19T19:51:00;6.53;;;5.60;;
15022;SDS011;19850;49.576;10.880;2022-08-19T19:55:03;6.97;;;5.70;;
15022;SDS011;19850;49.576;10.880;2022-08-19T19:59:08;7.13;;;6.43;;
15022;SDS011;19850;49.576;10.880;2022-08-19T20:03:10;6.93;;;5.90;;
15022;SDS011;19850;49.576;10.880;2022-08-19T20:07:13;8.10;;;5.80;;
15022;SDS011;19850;49.576;10.880;2022-08-19T20:11:24;6.77;;;5.70;;
15022;SDS011;19850;49.576;10.880;2022-08-19T20:15:32;7.20;;;5.80;;
15022;SDS011;19850;49.576;10.880;2022-08-19T20:19:42;8.00;;;6.03;;
15022;SDS011;19850;49.576;10.880;2022-08-19T20:23:45;8.27;;;6.00;;
15022;SDS011;19850;49.576;10.880;2022-08-19T20:28:07;7.40;;;6.10;;
15022;SDS011;19850;49.576;10.880;2022-08-19T20:32:13;9.37;;;6.50;;
15022;SDS011;19850;49.576;10.880;2022-08-19T20:36:17;8.33;;;6.87;;
15022;SDS011;19850;49.576;10.880;2022-08-19T20:40:20;7.90;;;7.00;;
15022;SDS011;19850;49.576;10.880;2022-08-19T20:44:23;9.53;;;7.40;;
15022;SDS011;19850;49.576;10.880;2022-08-19T20:48:27;7.90;;;6.90;;
15022;SDS011;19850;49.576;10.880;2022-08-19T20:52:30;8.23;;;7.23;;
15022;SDS011;19850;49.576;10.880;2022-08-19T20:56:33;7.93;;;7.13;;
15022;SDS011;19850;49.576;10.880;2022-08-19T21:00:36;11.07;;;7.17;;
15022;SDS011;19850;49.576;10.880;2022-08-19T21:04:40;9.13;;;7.93;;
15022;SDS011;19850;49.576;10.880;2022-08-19T21:08:43;8.63;;;7.83;;
15022;SDS011;19850;49.576;10.880;2022-08-19T21:12:49;9.30;;;8.20;;
15022;SDS011;19850;49.576;10.880;2022-08-19T21:16:53;9.77;;;7.80;;
15022;SDS011;19850;49.576;10.880;2022-08-19T21:20:57;9.37;;;7.67;;
15022;SDS011;19850;49.576;10.880;2022-08-19T21:25:00;8.33;;;7.50;;
15022;SDS011;19850;49.576;10.880;2022-08-19T21:29:03;11.07;;;7.57;;
15022;SDS011;19850;49.576;10.880;2022-08-19T21:33:06;8.30;;;7.07;;
15022;SDS011;19850;49.576;10.880;2022-08-19T21:37:10;8.57;;;7.67;;
15022;SDS011;19850;49.576;10.880;2022-08-19T21:41:25;9.43;;;8.20;;
15022;SDS011;19850;49.576;10.880;2022-08-19T21:45:28;8.50;;;7.70;;
15022;SDS011;19850;49.576;10.880;2022-08-19T21:49:31;9.80;;;8.17;;
15022;SDS011;19850;49.576;10.880;2022-08-19T21:53:36;8.57;;;7.77;;
15022;SDS011;19850;49.576;10.880;2022-08-19T21:57:39;8.73;;;7.93;;
15022;SDS011;19850;49.576;10.880;2022-08-19T22:01:42;8.93;;;8.03;;
15022;SDS011;19850;49.576;10.880;2022-08-19T22:05:54;9.80;;;8.40;;
15022;SDS011;19850;49.576;10.880;2022-08-19T22:10:00;8.63;;;7.73;;
15022;SDS011;19850;49.576;10.880;2022-08-19T22:14:03;12.17;;;8.73;;
15022;SDS011;19850;49.576;10.880;2022-08-19T22:18:08;10.20;;;8.03;;
15022;SDS011;19850;49.576;10.880;2022-08-19T22:22:11;9.40;;;8.43;;
15022;SDS011;19850;49.576;10.880;2022-08-19T22:26:15;9.53;;;8.60;;
15022;SDS011;19850;49.576;10.880;2022-08-19T22:30:19;8.97;;;8.10;;
15022;SDS011;19850;49.576;10.880;2022-08-19T22:34:23;9.53;;;8.47;;
15022;SDS011;19850;49.576;10.880;2022-08-19T22:38:26;9.07;;;8.17;;
15022;SDS011;19850;49.576;10.880;2022-08-19T22:42:31;11.57;;;8.50;;
15022;SDS011;19850;49.576;10.880;2022-08-19T22:46:34;9.13;;;8.33;;
15022;SDS011;19850;49.576;10.880;2022-08-19T22:50:37;9.13;;;8.20;;
15022;SDS011;19850;49.576;10.880;2022-08-19T22:54:40;8.17;;;7.37;;
15022;SDS011;19850;49.576;10.880;2022-08-19T22:58:45;8.60;;;7.53;;
15022;SDS011;19850;49.576;10.880;2022-08-19T23:02:50;8.57;;;7.60;;
15022;SDS011;19850;49.576;10.880;2022-08-19T23:06:53;10.47;;;7.53;;
15022;SDS011;19850;49.576;10.880;2022-08-19T23:10:56;9.13;;;6.80;;
15022;SDS011;19850;49.576;10.880;2022-08-19T23:15:05;9.17;;;7.67;;
15022;SDS011;19850;49.576;10.880;2022-08-19T23:19:09;10.17;;;8.83;;
15022;SDS011;19850;49.576;10.880;2022-08-19T23:23:14;9.90;;;9.00;;
15022;SDS011;19850;49.576;10.880;2022-08-19T23:27:19;12.90;;;8.47;;
15022;SDS011;19850;49.576;10.880;2022-08-19T23:31:52;10.73;;;8.93;;
15022;SDS011;19850;49.576;10.880;2022-08-19T23:35:55;10.03;;;9.03;;
15022;SDS011;19850;49.576;10.880;2022-08-19T23:39:59;10.43;;;9.43;;
15022;SDS011;19850;49.576;10.880;2022-08-19T23:44:02;9.63;;;8.70;;
15022;SDS011;19850;49.576;10.880;2022-08-19T23:48:16;12.07;;;9.17;;
15022;SDS011;19850;49.576;10.880;2022-08-19T23:52:19;9.73;;;8.23;;